Time;durP1;ratioP1;P1;durP2;ratioP2;P2;SDS_P1;SDS_P2;PMS_P1;PMS_P2;Temp;Humidity;BMP_temperature;BMP_pressure;BME280_temperature;BME280_humidity;BME280_pressure;Samples;Min_cycle;Max_cycle;Signal;HPM_P1;HPM_P2
2023/12/21 00:01:33;;;;;;;;;;;19.80;60.00;;;;;;5075207;28;19924;-58
2023/12/21 00:03:58;;;;;;;;;;;19.80;60.00;;;;;;5057114;28;19973;-58
2023/12/21 00:06:24;;;;;;;;;;;19.80;60.00;;;;;;5056376;28;19986;-58
2023/12/21 00:08:49;;;;;;;;;;;19.80;60.00;;;;;;5074294;28;19924;-59
2023/12/21 00:11:15;;;;;;;;;;;19.80;59.90;;;;;;5074413;28;19931;-58
2023/12/21 00:13:40;;;;;;;;;;;19.70;59.90;;;;;;5059294;28;19928;-58
2023/12/21 00:16:06;;;;;;;;;;;19.70;59.90;;;;;;5036685;28;19925;-58
2023/12/21 00:18:31;;;;;;;;;;;19.70;59.90;;;;;;5037041;28;19977;-58
2023/12/21 00:20:57;;;;;;;;;;;19.70;59.80;;;;;;5054041;28;19935;-58
2023/12/21 00:23:22;;;;;;;;;;;19.70;59.80;;;;;;5036914;28;19925;-58
2023/12/21 00:25:48;;;;;;;;;;;19.60;59.80;;;;;;5054778;28;19925;-58
2023/12/21 00:28:13;;;;;;;;;;;19.70;59.80;;;;;;5035985;28;20446;-59
2023/12/21 00:30:39;;;;;;;;;;;19.70;59.80;;;;;;5037173;28;19924;-58
2023/12/21 00:33:04;;;;;;;;;;;19.60;59.80;;;;;;5054393;28;20007;-59
2023/12/21 00:35:30;;;;;;;;;;;19.60;59.80;;;;;;5054000;28;19931;-58
2023/12/21 00:37:55;;;;;;;;;;;19.60;59.80;;;;;;5034817;28;20027;-58
2023/12/21 00:40:21;;;;;;;;;;;19.60;59.80;;;;;;5053267;28;19924;-59
2023/12/21 00:42:46;;;;;;;;;;;19.60;59.80;;;;;;5067670;28;20013;-59
2023/12/21 00:45:12;;;;;;;;;;;19.60;59.80;;;;;;5074183;28;20292;-59
2023/12/21 00:47:37;;;;;;;;;;;19.50;59.70;;;;;;5074473;28;20023;-59
2023/12/21 00:50:03;;;;;;;;;;;19.50;59.70;;;;;;5055250;28;20403;-59
2023/12/21 00:52:28;;;;;;;;;;;19.50;59.70;;;;;;5073301;28;19924;-59
2023/12/21 00:54:54;;;;;;;;;;;19.50;59.70;;;;;;5065744;28;19920;-59
2023/12/21 00:57:19;;;;;;;;;;;19.50;59.70;;;;;;5072406;28;19929;-59
2023/12/21 00:59:45;;;;;;;;;;;19.50;59.70;;;;;;5063479;28;19991;-59
2023/12/21 01:02:10;;;;;;;;;;;19.50;59.70;;;;;;5053029;28;20411;-58
2023/12/21 01:04:36;;;;;;;;;;;19.50;59.70;;;;;;5036046;28;19974;-59
2023/12/21 01:07:01;;;;;;;;;;;19.50;59.70;;;;;;5053044;28;19979;-58
2023/12/21 01:09:27;;;;;;;;;;;19.50;59.70;;;;;;5053231;28;19932;-59
2023/12/21 01:11:52;;;;;;;;;;;19.50;59.70;;;;;;5066504;28;19932;-58
2023/12/21 01:14:18;;;;;;;;;;;19.50;59.70;;;;;;5073963;28;19974;-58
2023/12/21 01:16:43;;;;;;;;;;;19.40;59.60;;;;;;5055199;28;19928;-59
2023/12/21 01:19:08;;;;;;;;;;;19.50;59.70;;;;;;5055119;28;19931;-58
2023/12/21 01:21:34;;;;;;;;;;;19.40;59.60;;;;;;5071276;28;20003;-58
2023/12/21 01:23:59;;;;;;;;;;;19.40;59.70;;;;;;5052752;28;20272;-58
2023/12/21 01:26:25;;;;;;;;;;;19.40;59.60;;;;;;5053453;28;20425;-58
2023/12/21 01:28:51;;;;;;;;;;;19.40;59.70;;;;;;5032088;28;19932;-59
2023/12/21 01:31:16;;;;;;;;;;;19.40;59.60;;;;;;5033189;28;19933;-58
2023/12/21 01:33:42;;;;;;;;;;;19.40;59.70;;;;;;5033238;28;20392;-58
2023/12/21 01:36:07;;;;;;;;;;;19.40;59.70;;;;;;5033185;28;19929;-58
2023/12/21 01:38:33;;;;;;;;;;;19.40;59.70;;;;;;5033149;28;19926;-59
2023/12/21 01:40:59;;;;;;;;;;;19.40;59.60;;;;;;5032688;28;19932;-58
2023/12/21 01:43:25;;;;;;;;;;;19.40;59.60;;;;;;5032341;28;20013;-58
2023/12/21 01:45:50;;;;;;;;;;;19.40;59.60;;;;;;5031471;28;20397;-58
2023/12/21 01:48:15;;;;;;;;;;;19.30;59.60;;;;;;5048944;28;19924;-58
2023/12/21 01:50:41;;;;;;;;;;;19.30;59.60;;;;;;5043285;28;19931;-58
2023/12/21 01:53:09;;;;;;;;;;;19.30;59.60;;;;;;5032371;28;19972;-58
2023/12/21 01:55:34;;;;;;;;;;;19.30;59.60;;;;;;5032738;28;20395;-58
2023/12/21 01:58:00;;;;;;;;;;;19.30;59.60;;;;;;5031966;28;19925;-58
2023/12/21 02:00:26;;;;;;;;;;;19.30;59.60;;;;;;5031256;28;20353;-58
2023/12/21 02:02:51;;;;;;;;;;;19.30;59.60;;;;;;5031814;28;20464;-59
2023/12/21 02:05:17;;;;;;;;;;;19.30;59.60;;;;;;5048069;28;19947;-58
2023/12/21 02:07:42;;;;;;;;;;;19.30;59.60;;;;;;5052000;28;20284;-58
2023/12/21 02:10:09;;;;;;;;;;;19.30;59.60;;;;;;5044640;28;19933;-58
2023/12/21 02:12:35;;;;;;;;;;;19.30;59.60;;;;;;5031667;28;19928;-58
2023/12/21 02:15:00;;;;;;;;;;;19.30;59.60;;;;;;5031309;28;19925;-58
2023/12/21 02:17:26;;;;;;;;;;;19.30;59.60;;;;;;5032670;28;19925;-58
2023/12/21 02:19:51;;;;;;;;;;;19.20;59.50;;;;;;5014551;28;19986;-58
2023/12/21 02:22:17;;;;;;;;;;;19.20;59.60;;;;;;5033243;28;19925;-59
2023/12/21 02:24:42;;;;;;;;;;;19.20;59.50;;;;;;5031864;28;19925;-59
2023/12/21 02:27:07;;;;;;;;;;;19.20;59.50;;;;;;5030151;28;19929;-58
2023/12/21 02:29:33;;;;;;;;;;;19.20;59.50;;;;;;5045051;28;19976;-58
2023/12/21 02:31:58;;;;;;;;;;;19.20;59.60;;;;;;5052601;28;19925;-59
2023/12/21 02:34:24;;;;;;;;;;;19.20;59.60;;;;;;5034029;28;20067;-58
2023/12/21 02:36:49;;;;;;;;;;;19.20;59.60;;;;;;5034815;28;19932;-58
2023/12/21 02:39:15;;;;;;;;;;;19.20;59.60;;;;;;5057313;28;20060;-58
2023/12/21 02:41:40;;;;;;;;;;;19.20;59.60;;;;;;5051796;28;20283;-58
2023/12/21 02:44:06;;;;;;;;;;;19.20;59.60;;;;;;5071928;28;19924;-59
2023/12/21 02:46:32;;;;;;;;;;;19.20;59.60;;;;;;5072257;28;20352;-59
2023/12/21 02:48:57;;;;;;;;;;;19.10;59.50;;;;;;5071043;28;19932;-58
2023/12/21 02:51:23;;;;;;;;;;;19.10;59.50;;;;;;5043770;28;19928;-58
2023/12/21 02:53:48;;;;;;;;;;;19.20;59.60;;;;;;5052814;28;19928;-58
2023/12/21 02:56:14;;;;;;;;;;;19.10;59.50;;;;;;5058803;28;19924;-58
2023/12/21 02:58:39;;;;;;;;;;;19.10;59.50;;;;;;5092832;28;19924;-59
2023/12/21 03:01:05;;;;;;;;;;;19.10;59.60;;;;;;5083717;28;19931;-59
2023/12/21 03:03:30;;;;;;;;;;;19.10;59.50;;;;;;5071687;28;19926;-59
2023/12/21 03:05:56;;;;;;;;;;;19.10;59.60;;;;;;5062601;28;19932;-58
2023/12/21 03:08:22;;;;;;;;;;;19.10;59.60;;;;;;5071629;28;19928;-59
2023/12/21 03:10:48;;;;;;;;;;;19.10;59.60;;;;;;5043211;28;19968;-59
2023/12/21 03:13:13;;;;;;;;;;;19.10;59.60;;;;;;5051993;28;20391;-59
2023/12/21 03:15:39;;;;;;;;;;;19.10;59.50;;;;;;5052159;28;19931;-59
2023/12/21 03:18:04;;;;;;;;;;;19.00;59.50;;;;;;5051523;28;20396;-59
2023/12/21 03:20:30;;;;;;;;;;;19.00;59.50;;;;;;5052576;28;19931;-59
2023/12/21 03:22:55;;;;;;;;;;;19.00;59.50;;;;;;5051642;28;20016;-59
2023/12/21 03:25:21;;;;;;;;;;;19.00;59.50;;;;;;5052109;28;19986;-59
2023/12/21 03:27:47;;;;;;;;;;;19.00;59.50;;;;;;5052138;28;20004;-58
2023/12/21 03:30:12;;;;;;;;;;;19.00;59.60;;;;;;5053031;28;20051;-59
2023/12/21 03:32:38;;;;;;;;;;;19.00;59.50;;;;;;5038241;28;20023;-59
2023/12/21 03:35:05;;;;;;;;;;;19.00;59.60;;;;;;5037629;28;20354;-59
2023/12/21 03:37:31;;;;;;;;;;;19.00;59.60;;;;;;5037293;28;20426;-58
2023/12/21 03:39:56;;;;;;;;;;;19.00;59.60;;;;;;5055582;28;19932;-59
2023/12/21 03:42:22;;;;;;;;;;;19.00;59.60;;;;;;5037206;28;19924;-58
2023/12/21 03:44:47;;;;;;;;;;;19.00;59.60;;;;;;5036831;28;19928;-58
2023/12/21 03:47:13;;;;;;;;;;;19.00;59.50;;;;;;5055094;28;19925;-58
2023/12/21 03:49:39;;;;;;;;;;;19.00;59.60;;;;;;5055721;28;20377;-58
2023/12/21 03:52:05;;;;;;;;;;;19.00;59.50;;;;;;5054496;28;20364;-58
2023/12/21 03:54:30;;;;;;;;;;;19.00;59.50;;;;;;5037648;28;19974;-58
2023/12/21 03:56:56;;;;;;;;;;;19.00;59.50;;;;;;5036763;28;19925;-58
2023/12/21 03:59:21;;;;;;;;;;;19.00;59.50;;;;;;5054540;28;19979;-58
2023/12/21 04:01:47;;;;;;;;;;;19.00;59.50;;;;;;5037400;28;19921;-58
2023/12/21 04:04:12;;;;;;;;;;;19.00;59.50;;;;;;5046020;28;20010;-59
2023/12/21 04:06:38;;;;;;;;;;;19.10;59.50;;;;;;5056477;28;19928;-58
2023/12/21 04:09:03;;;;;;;;;;;19.10;59.50;;;;;;5056991;28;19980;-58
2023/12/21 04:11:29;;;;;;;;;;;19.00;59.50;;;;;;5057008;28;19924;-58
2023/12/21 04:13:54;;;;;;;;;;;19.00;59.50;;;;;;5073336;28;20386;-58
2023/12/21 04:16:20;;;;;;;;;;;19.00;59.50;;;;;;5050176;28;19979;-59
2023/12/21 04:18:45;;;;;;;;;;;19.00;59.40;;;;;;5054871;28;19937;-59
2023/12/21 04:21:10;;;;;;;;;;;19.00;59.40;;;;;;5053814;28;20027;-59
2023/12/21 04:23:36;;;;;;;;;;;19.10;59.40;;;;;;5042645;28;19931;-59
2023/12/21 04:26:02;;;;;;;;;;;19.10;59.40;;;;;;5060851;28;19925;-59
2023/12/21 04:28:27;;;;;;;;;;;19.10;59.40;;;;;;5066601;28;19978;-58
2023/12/21 04:30:53;;;;;;;;;;;19.10;59.40;;;;;;5073293;28;19925;-59
2023/12/21 04:33:18;;;;;;;;;;;19.10;59.30;;;;;;5064548;28;19928;-59
2023/12/21 04:35:44;;;;;;;;;;;19.10;59.40;;;;;;5064238;28;19974;-58
2023/12/21 04:38:10;;;;;;;;;;;19.10;59.30;;;;;;5036778;28;19936;-58
2023/12/21 04:40:35;;;;;;;;;;;19.10;59.30;;;;;;5052447;28;19929;-58
2023/12/21 04:43:01;;;;;;;;;;;19.10;59.30;;;;;;5053972;28;19924;-58
2023/12/21 04:45:26;;;;;;;;;;;19.20;59.30;;;;;;5054350;28;20476;-58
2023/12/21 04:47:52;;;;;;;;;;;19.20;59.30;;;;;;5035638;28;19925;-58
2023/12/21 04:50:18;;;;;;;;;;;19.20;59.30;;;;;;5054502;28;19947;-58
2023/12/21 04:52:43;;;;;;;;;;;19.20;59.30;;;;;;5074551;28;19971;-59
2023/12/21 04:55:09;;;;;;;;;;;19.20;59.30;;;;;;5073050;28;19960;-58
2023/12/21 04:57:34;;;;;;;;;;;19.20;59.30;;;;;;5073529;28;20292;-59
2023/12/21 05:00:00;;;;;;;;;;;19.30;59.30;;;;;;5055619;28;19978;-59
2023/12/21 05:02:25;;;;;;;;;;;19.30;59.20;;;;;;5065484;28;19982;-58
2023/12/21 05:04:51;;;;;;;;;;;19.30;59.30;;;;;;5072701;28;19925;-59
2023/12/21 05:07:18;;;;;;;;;;;19.30;59.20;;;;;;5073163;28;19924;-58
2023/12/21 05:09:43;;;;;;;;;;;19.30;59.20;;;;;;5072451;28;19924;-59
2023/12/21 05:12:09;;;;;;;;;;;19.30;59.20;;;;;;5073588;28;19924;-59
2023/12/21 05:14:34;;;;;;;;;;;19.40;59.20;;;;;;5055935;28;20396;-59
2023/12/21 05:17:00;;;;;;;;;;;19.40;59.20;;;;;;5072657;28;19967;-58
2023/12/21 05:19:25;;;;;;;;;;;19.40;59.20;;;;;;5073773;28;20016;-58
2023/12/21 05:21:51;;;;;;;;;;;19.40;59.20;;;;;;5056044;28;19931;-59
2023/12/21 05:24:16;;;;;;;;;;;19.40;59.10;;;;;;5055302;28;20014;-59
2023/12/21 05:26:42;;;;;;;;;;;19.40;59.10;;;;;;5072994;28;20388;-59
2023/12/21 05:29:07;;;;;;;;;;;19.40;59.10;;;;;;5073287;28;19924;-59
2023/12/21 05:31:34;;;;;;;;;;;19.40;59.10;;;;;;5072534;28;19929;-59
2023/12/21 05:33:59;;;;;;;;;;;19.50;59.10;;;;;;5055351;28;20023;-59
2023/12/21 05:36:25;;;;;;;;;;;19.50;59.10;;;;;;5072853;28;20015;-59
2023/12/21 05:38:50;;;;;;;;;;;19.50;59.10;;;;;;5073531;28;19925;-59
2023/12/21 05:41:16;;;;;;;;;;;19.50;59.10;;;;;;5072627;28;20395;-59
2023/12/21 05:43:41;;;;;;;;;;;19.50;59.10;;;;;;5072584;28;20036;-59
2023/12/21 05:46:07;;;;;;;;;;;19.50;59.10;;;;;;5072888;28;19924;-58
2023/12/21 05:48:32;;;;;;;;;;;19.50;59.10;;;;;;5055644;28;19931;-59
2023/12/21 05:50:58;;;;;;;;;;;19.50;59.00;;;;;;5064074;28;19982;-59
2023/12/21 05:53:24;;;;;;;;;;;19.50;59.00;;;;;;5052794;28;19924;-58
2023/12/21 05:55:49;;;;;;;;;;;19.50;59.00;;;;;;5052954;28;19932;-59
2023/12/21 05:58:15;;;;;;;;;;;19.50;59.00;;;;;;5052043;28;19931;-59
2023/12/21 06:00:40;;;;;;;;;;;19.50;59.00;;;;;;5035363;28;20346;-59
2023/12/21 06:03:06;;;;;;;;;;;19.50;58.90;;;;;;5052700;28;19931;-59
2023/12/21 06:05:32;;;;;;;;;;;19.60;59.00;;;;;;5052389;28;19947;-58
2023/12/21 06:07:57;;;;;;;;;;;19.60;59.00;;;;;;5044337;28;20295;-58
2023/12/21 06:10:23;;;;;;;;;;;19.60;59.00;;;;;;5053930;28;20368;-58
2023/12/21 06:12:48;;;;;;;;;;;19.60;59.00;;;;;;5053078;28;19936;-59
2023/12/21 06:15:14;;;;;;;;;;;19.60;59.00;;;;;;5071902;28;20431;-58
2023/12/21 06:17:39;;;;;;;;;;;19.60;58.90;;;;;;5055003;28;19928;-59
2023/12/21 06:20:05;;;;;;;;;;;19.60;58.90;;;;;;5041795;28;19925;-59
2023/12/21 06:22:31;;;;;;;;;;;19.60;58.90;;;;;;5051934;28;19931;-59
2023/12/21 06:24:57;;;;;;;;;;;19.60;58.90;;;;;;5055403;28;20018;-58
2023/12/21 06:27:22;;;;;;;;;;;19.60;58.90;;;;;;5053533;28;20614;-59
2023/12/21 06:29:47;;;;;;;;;;;19.60;58.90;;;;;;5054590;28;19964;-58
2023/12/21 06:32:13;;;;;;;;;;;19.60;58.80;;;;;;5054336;28;19925;-59
2023/12/21 06:34:39;;;;;;;;;;;19.60;58.80;;;;;;5072028;28;19928;-58
2023/12/21 06:37:04;;;;;;;;;;;19.60;58.80;;;;;;5037139;28;19931;-58
2023/12/21 06:39:33;;;;;;;;;;;19.70;58.90;;;;;;5052801;28;19943;-59
2023/12/21 06:41:59;;;;;;;;;;;19.60;58.80;;;;;;5070592;28;19928;-58
2023/12/21 06:44:25;;;;;;;;;;;19.70;58.80;;;;;;5070102;28;19991;-58
2023/12/21 06:46:53;;;;;;;;;;;19.70;58.80;;;;;;5053458;28;19924;-59
2023/12/21 06:49:19;;;;;;;;;;;19.70;58.80;;;;;;5072889;28;19935;-58
2023/12/21 06:51:45;;;;;;;;;;;19.60;58.70;;;;;;5054949;28;19928;-58
2023/12/21 06:54:11;;;;;;;;;;;19.70;58.70;;;;;;5072284;28;19924;-59
2023/12/21 06:56:37;;;;;;;;;;;19.70;58.70;;;;;;5072137;28;19946;-58
2023/12/21 06:59:02;;;;;;;;;;;19.70;58.70;;;;;;5072244;28;19924;-58
2023/12/21 07:01:28;;;;;;;;;;;19.70;58.70;;;;;;5053274;28;19924;-58
2023/12/21 07:03:56;;;;;;;;;;;19.70;58.70;;;;;;5072978;28;19924;-59
2023/12/21 07:06:22;;;;;;;;;;;19.70;58.70;;;;;;5058350;28;19950;-59
2023/12/21 07:08:48;;;;;;;;;;;19.70;58.60;;;;;;5057690;28;19925;-59
2023/12/21 07:11:13;;;;;;;;;;;19.70;58.70;;;;;;5057673;28;20007;-59
2023/12/21 07:13:39;;;;;;;;;;;19.70;58.60;;;;;;5076181;28;19931;-59
2023/12/21 07:16:05;;;;;;;;;;;19.70;58.60;;;;;;5057046;28;19963;-59
2023/12/21 07:18:30;;;;;;;;;;;19.70;58.60;;;;;;5076414;28;19924;-61
2023/12/21 07:20:56;;;;;;;;;;;19.70;58.60;;;;;;5075570;28;19925;-58
2023/12/21 07:23:21;;;;;;;;;;;19.70;58.60;;;;;;5074692;28;19927;-58
2023/12/21 07:25:47;;;;;;;;;;;19.70;58.70;;;;;;5075389;28;20319;-58
2023/12/21 07:28:15;;;;;;;;;;;19.70;58.60;;;;;;5057433;28;19925;-58
2023/12/21 07:30:40;;;;;;;;;;;19.70;58.50;;;;;;5075203;28;20295;-58
2023/12/21 07:33:06;;;;;;;;;;;19.70;58.60;;;;;;5056566;28;19932;-57
2023/12/21 07:35:31;;;;;;;;;;;19.70;58.50;;;;;;5059283;28;19928;-57
2023/12/21 07:37:57;;;;;;;;;;;19.70;58.50;;;;;;5074817;28;19930;-58
2023/12/21 07:40:22;;;;;;;;;;;19.80;58.60;;;;;;5075635;28;19986;-58
2023/12/21 07:42:48;;;;;;;;;;;19.70;58.50;;;;;;5061584;28;19928;-58
2023/12/21 07:45:13;;;;;;;;;;;19.70;58.50;;;;;;5036673;28;20020;-58
2023/12/21 07:47:39;;;;;;;;;;;19.70;58.60;;;;;;5055611;28;19935;-58
2023/12/21 07:50:04;;;;;;;;;;;19.80;58.70;;;;;;5054616;28;19978;-58
2023/12/21 07:52:30;;;;;;;;;;;19.80;58.60;;;;;;5055298;28;19921;-58
2023/12/21 07:54:55;;;;;;;;;;;19.80;58.70;;;;;;5055982;28;19940;-58
2023/12/21 07:57:21;;;;;;;;;;;19.80;58.70;;;;;;5074549;28;20300;-58
2023/12/21 07:59:46;;;;;;;;;;;19.70;58.70;;;;;;5075693;28;19932;-58
2023/12/21 08:02:12;;;;;;;;;;;19.80;58.80;;;;;;5057350;28;19921;-59
2023/12/21 08:04:37;;;;;;;;;;;19.80;58.90;;;;;;5073697;28;19930;-58
2023/12/21 08:07:03;;;;;;;;;;;19.80;59.10;;;;;;5074006;28;19924;-59
2023/12/21 08:09:29;;;;;;;;;;;19.80;59.20;;;;;;5075413;28;20007;-59
2023/12/21 08:11:54;;;;;;;;;;;19.80;59.30;;;;;;5056103;28;19925;-59
2023/12/21 08:14:20;;;;;;;;;;;19.80;59.30;;;;;;5066763;28;20396;-60
2023/12/21 08:16:45;;;;;;;;;;;19.80;59.40;;;;;;5055612;28;19924;-59
2023/12/21 08:19:11;;;;;;;;;;;19.80;59.40;;;;;;5074124;28;19986;-59
2023/12/21 08:21:36;;;;;;;;;;;19.80;59.40;;;;;;5060179;28;20380;-59
2023/12/21 08:24:03;;;;;;;;;;;19.80;59.50;;;;;;5054598;28;19970;-59
2023/12/21 08:26:29;;;;;;;;;;;19.80;59.60;;;;;;5066416;28;20302;-59
2023/12/21 08:28:54;;;;;;;;;;;19.90;59.60;;;;;;5074449;28;20007;-59
2023/12/21 08:31:24;;;;;;;;;;;19.90;59.60;;;;;;5056828;28;19931;-59
2023/12/21 08:33:49;;;;;;;;;;;19.90;59.60;;;;;;5074123;28;19964;-59
2023/12/21 08:36:15;;;;;;;;;;;19.90;59.60;;;;;;5070267;28;19963;-58
2023/12/21 08:38:40;;;;;;;;;;;19.90;59.50;;;;;;5037114;28;19925;-58
2023/12/21 08:41:06;;;;;;;;;;;19.90;59.50;;;;;;5053056;28;20441;-58
2023/12/21 08:43:36;;;;;;;;;;;19.90;59.60;;;;;;5057326;28;19924;-57
2023/12/21 08:46:01;;;;;;;;;;;19.90;59.60;;;;;;5065605;28;20023;-58
2023/12/21 08:48:27;;;;;;;;;;;19.90;59.70;;;;;;5061650;28;19929;-57
2023/12/21 08:50:53;;;;;;;;;;;19.90;59.60;;;;;;5065021;28;19969;-57
2023/12/21 08:53:18;;;;;;;;;;;19.90;59.60;;;;;;5064243;28;19928;-58
2023/12/21 08:55:44;;;;;;;;;;;19.90;59.70;;;;;;5038965;28;19933;-56
2023/12/21 08:58:10;;;;;;;;;;;19.90;59.70;;;;;;5058943;28;19928;-57
2023/12/21 09:00:35;;;;;;;;;;;20.00;59.80;;;;;;5063964;28;19932;-57
2023/12/21 09:03:01;;;;;;;;;;;19.90;59.70;;;;;;5062148;28;19968;-57
2023/12/21 09:05:26;;;;;;;;;;;20.00;59.80;;;;;;5062906;28;19932;-57
2023/12/21 09:07:52;;;;;;;;;;;20.00;59.80;;;;;;5044401;28;19925;-58
2023/12/21 09:10:17;;;;;;;;;;;20.00;59.90;;;;;;5063816;28;19943;-57
2023/12/21 09:12:43;;;;;;;;;;;20.00;59.80;;;;;;5068491;28;19924;-58
2023/12/21 09:15:08;;;;;;;;;;;20.00;59.90;;;;;;5070542;28;19930;-58
2023/12/21 09:17:34;;;;;;;;;;;20.00;59.90;;;;;;5072826;28;19924;-58
2023/12/21 09:20:00;;;;;;;;;;;20.00;59.90;;;;;;5072426;28;20019;-58
2023/12/21 09:22:25;;;;;;;;;;;20.10;60.00;;;;;;5071780;28;20272;-58
2023/12/21 09:24:51;;;;;;;;;;;20.10;59.90;;;;;;5072939;28;19971;-58
2023/12/21 09:27:16;;;;;;;;;;;20.10;60.00;;;;;;5072589;28;19970;-57
2023/12/21 09:29:42;;;;;;;;;;;20.10;60.00;;;;;;5071143;28;19932;-58
2023/12/21 09:32:08;;;;;;;;;;;20.10;60.00;;;;;;5071914;28;19925;-57
2023/12/21 09:34:34;;;;;;;;;;;20.10;60.00;;;;;;5072146;28;19924;-57
2023/12/21 09:36:59;;;;;;;;;;;20.10;60.10;;;;;;5054343;28;19928;-58
2023/12/21 09:39:25;;;;;;;;;;;20.10;60.00;;;;;;5054926;28;20007;-57
2023/12/21 09:41:50;;;;;;;;;;;20.10;60.10;;;;;;5042998;28;19925;-57
2023/12/21 09:44:17;;;;;;;;;;;20.10;60.10;;;;;;5034398;28;20003;-57
2023/12/21 09:46:43;;;;;;;;;;;20.10;60.10;;;;;;5035204;28;20015;-57
2023/12/21 09:49:09;;;;;;;;;;;20.10;60.10;;;;;;5053259;28;19928;-57
2023/12/21 09:51:35;;;;;;;;;;;20.10;60.10;;;;;;5044637;28;19924;-57
2023/12/21 09:54:01;;;;;;;;;;;20.10;60.10;;;;;;5069192;28;19928;-57
2023/12/21 09:56:26;;;;;;;;;;;20.10;60.20;;;;;;5054784;28;19970;-57
2023/12/21 09:58:52;;;;;;;;;;;20.10;60.20;;;;;;5033820;28;19925;-58
2023/12/21 10:01:17;;;;;;;;;;;20.10;60.20;;;;;;5052676;28;20549;-57
2023/12/21 10:03:44;;;;;;;;;;;20.10;60.30;;;;;;5051930;28;19960;-57
2023/12/21 10:06:10;;;;;;;;;;;20.10;60.20;;;;;;5034710;28;19932;-58
2023/12/21 10:08:36;;;;;;;;;;;20.10;60.20;;;;;;5053083;28;19928;-57
2023/12/21 10:11:06;;;;;;;;;;;20.10;60.10;;;;;;5039637;28;20062;-57
2023/12/21 10:13:33;;;;;;;;;;;20.10;60.20;;;;;;5035610;28;19951;-56
2023/12/21 10:15:59;;;;;;;;;;;20.10;60.20;;;;;;5052543;28;19924;-57
2023/12/21 10:18:26;;;;;;;;;;;20.10;60.30;;;;;;5058077;28;19931;-57
2023/12/21 10:20:53;;;;;;;;;;;20.10;60.30;;;;;;5061776;28;20022;-57
2023/12/21 10:23:19;;;;;;;;;;;20.10;60.30;;;;;;5062739;28;19924;-57
2023/12/21 10:25:45;;;;;;;;;;;20.10;60.30;;;;;;5060929;28;19936;-57
2023/12/21 10:28:10;;;;;;;;;;;20.00;60.20;;;;;;5061769;28;19929;-58
2023/12/21 10:30:37;;;;;;;;;;;20.00;60.20;;;;;;5063537;28;20589;-57
2023/12/21 10:33:02;;;;;;;;;;;20.10;60.30;;;;;;5060048;28;20304;-58
2023/12/21 10:35:28;;;;;;;;;;;20.00;60.20;;;;;;5034693;28;19932;-58
2023/12/21 10:37:53;;;;;;;;;;;20.00;60.20;;;;;;5035255;28;19925;-58
2023/12/21 10:40:19;;;;;;;;;;;20.00;60.20;;;;;;5075131;28;19935;-58
2023/12/21 10:42:45;;;;;;;;;;;20.00;60.20;;;;;;5077153;28;19932;-58
2023/12/21 10:45:13;;;;;;;;;;;20.00;60.10;;;;;;5075706;28;19925;-58
2023/12/21 10:47:39;;;;;;;;;;;20.00;60.00;;;;;;5075627;28;20374;-59
2023/12/21 10:50:05;;;;;;;;;;;20.00;60.00;;;;;;5048932;28;20474;-56
2023/12/21 10:52:30;;;;;;;;;;;20.00;60.10;;;;;;5052114;28;20019;-58
2023/12/21 10:54:56;;;;;;;;;;;20.00;60.20;;;;;;5055287;28;19929;-59
2023/12/21 10:57:21;;;;;;;;;;;20.00;60.40;;;;;;5021907;28;19924;-58
2023/12/21 10:59:48;;;;;;;;;;;20.00;60.60;;;;;;5056560;28;19928;-57
2023/12/21 11:02:16;;;;;;;;;;;20.00;60.70;;;;;;5055636;28;19960;-58
2023/12/21 11:04:42;;;;;;;;;;;20.00;60.70;;;;;;5039110;28;19925;-58
2023/12/21 11:07:08;;;;;;;;;;;20.00;60.70;;;;;;5037122;28;20342;-58
2023/12/21 11:09:33;;;;;;;;;;;20.00;60.70;;;;;;5056278;28;19929;-58
2023/12/21 11:11:59;;;;;;;;;;;20.00;60.80;;;;;;5021682;28;19948;-58
2023/12/21 11:14:24;;;;;;;;;;;20.00;60.80;;;;;;5055201;28;20011;-58
2023/12/21 11:16:54;;;;;;;;;;;20.00;60.80;;;;;;5038270;28;20023;-58
2023/12/21 11:19:30;;;;;;;;;;;20.00;60.80;;;;;;5055986;28;19928;-58
2023/12/21 11:21:55;;;;;;;;;;;20.00;60.70;;;;;;5037094;28;19924;-58
2023/12/21 11:24:21;;;;;;;;;;;20.00;60.60;;;;;;5038493;28;19932;-59
2023/12/21 11:26:48;;;;;;;;;;;20.00;60.60;;;;;;5038031;28;19932;-58
2023/12/21 11:29:13;;;;;;;;;;;20.00;60.60;;;;;;5036937;28;19932;-58
2023/12/21 11:31:39;;;;;;;;;;;19.90;60.50;;;;;;5055243;28;19925;-59
2023/12/21 11:34:15;;;;;;;;;;;19.90;60.50;;;;;;5055670;28;19924;-59
2023/12/21 11:36:41;;;;;;;;;;;19.90;60.50;;;;;;5054597;28;19932;-59
2023/12/21 11:39:12;;;;;;;;;;;19.90;60.60;;;;;;5055284;28;19932;-58
2023/12/21 11:41:55;;;;;;;;;;;19.90;60.60;;;;;;5055950;28;19929;-59
2023/12/21 11:44:21;;;;;;;;;;;19.90;60.60;;;;;;5055037;28;19971;-59
2023/12/21 11:46:46;;;;;;;;;;;19.90;60.70;;;;;;5072020;28;19971;-59
2023/12/21 11:49:23;;;;;;;;;;;19.90;60.70;;;;;;5056244;28;19924;-59
2023/12/21 11:51:49;;;;;;;;;;;19.90;60.70;;;;;;5068762;28;20292;-58
2023/12/21 11:54:22;;;;;;;;;;;19.80;60.70;;;;;;5055476;28;19932;-59
2023/12/21 11:56:52;;;;;;;;;;;19.80;60.80;;;;;;5036951;28;19931;-59
2023/12/21 11:59:21;;;;;;;;;;;19.90;60.80;;;;;;5037491;28;20423;-59
2023/12/21 12:01:47;;;;;;;;;;;19.80;60.80;;;;;;5073723;28;20015;-58
2023/12/21 12:04:14;;;;;;;;;;;19.80;60.80;;;;;;5072881;28;20019;-58
2023/12/21 12:06:39;;;;;;;;;;;19.80;60.90;;;;;;5063197;28;19963;-56
2023/12/21 12:09:05;;;;;;;;;;;19.90;61.00;;;;;;5061070;28;20417;-57
2023/12/21 12:11:31;;;;;;;;;;;19.90;61.00;;;;;;5051619;28;19928;-56
2023/12/21 12:13:58;;;;;;;;;;;19.80;60.90;;;;;;5040787;28;20019;-56
2023/12/21 12:16:23;;;;;;;;;;;19.90;61.10;;;;;;5050885;28;19974;-57
2023/12/21 12:18:49;;;;;;;;;;;19.90;61.10;;;;;;5073846;28;19924;-58
2023/12/21 12:21:15;;;;;;;;;;;19.80;60.80;;;;;;5074616;28;19924;-56
2023/12/21 12:23:40;;;;;;;;;;;19.90;60.80;;;;;;5074255;28;20630;-57
2023/12/21 12:26:06;;;;;;;;;;;19.90;60.80;;;;;;5054718;28;20435;-57
2023/12/21 12:28:32;;;;;;;;;;;19.90;60.90;;;;;;5056732;28;20411;-57
2023/12/21 12:30:57;;;;;;;;;;;19.90;60.90;;;;;;5074117;28;20291;-57
2023/12/21 12:33:23;;;;;;;;;;;19.90;60.90;;;;;;5055290;28;19931;-57
2023/12/21 12:35:48;;;;;;;;;;;19.90;60.90;;;;;;5037138;28;20273;-57
2023/12/21 12:38:14;;;;;;;;;;;19.90;60.80;;;;;;5036602;28;20007;-57
2023/12/21 12:40:40;;;;;;;;;;;19.90;60.80;;;;;;5035326;28;19936;-57
2023/12/21 12:43:06;;;;;;;;;;;19.90;60.70;;;;;;5053861;28;19973;-58
2023/12/21 12:45:34;;;;;;;;;;;19.90;60.60;;;;;;5052467;28;19925;-57
2023/12/21 12:48:00;;;;;;;;;;;19.90;60.60;;;;;;5054075;28;19997;-58
2023/12/21 12:50:26;;;;;;;;;;;20.00;60.60;;;;;;5020471;28;20376;-57
2023/12/21 12:52:52;;;;;;;;;;;19.90;60.50;;;;;;5053305;28;19924;-57
2023/12/21 12:55:19;;;;;;;;;;;19.90;60.50;;;;;;5036361;28;19999;-57
2023/12/21 12:57:51;;;;;;;;;;;20.00;60.50;;;;;;5020066;28;19974;-58
2023/12/21 13:00:20;;;;;;;;;;;20.00;60.50;;;;;;5035652;28;19968;-57
2023/12/21 13:02:45;;;;;;;;;;;20.00;60.50;;;;;;5035099;28;19974;-57
2023/12/21 13:05:11;;;;;;;;;;;20.00;60.50;;;;;;5036192;28;20051;-57
2023/12/21 13:07:38;;;;;;;;;;;20.00;60.40;;;;;;5035429;28;20055;-58
2023/12/21 13:10:04;;;;;;;;;;;20.00;60.40;;;;;;5054974;28;19956;-59
2023/12/21 13:12:30;;;;;;;;;;;20.00;60.40;;;;;;5056711;28;19988;-62
2023/12/21 13:14:55;;;;;;;;;;;20.00;60.40;;;;;;5034029;28;20452;-61
2023/12/21 13:17:21;;;;;;;;;;;20.00;60.50;;;;;;5042162;28;19925;-61
2023/12/21 13:19:47;;;;;;;;;;;20.10;60.60;;;;;;5051332;28;19925;-60
2023/12/21 13:22:20;;;;;;;;;;;20.10;60.50;;;;;;5088339;27;20312;-59
2023/12/21 13:24:45;;;;;;;;;;;20.10;60.50;;;;;;5079679;28;20393;-61
2023/12/21 13:27:12;;;;;;;;;;;20.10;60.30;;;;;;5078273;28;19982;-60
2023/12/21 13:29:37;;;;;;;;;;;20.10;60.30;;;;;;5079290;28;19924;-61
2023/12/21 13:32:03;;;;;;;;;;;20.10;60.40;;;;;;5079873;28;19927;-61
2023/12/21 13:34:32;;;;;;;;;;;20.20;60.40;;;;;;5082201;28;20027;-61
2023/12/21 13:36:58;;;;;;;;;;;20.20;60.40;;;;;;5078796;28;19927;-61
2023/12/21 13:39:24;;;;;;;;;;;20.20;60.30;;;;;;5078264;28;19929;-61
2023/12/21 13:41:50;;;;;;;;;;;20.20;60.30;;;;;;5077629;28;19931;-60
2023/12/21 13:44:15;;;;;;;;;;;20.20;60.20;;;;;;5076124;28;20024;-61
2023/12/21 13:46:41;;;;;;;;;;;20.30;60.30;;;;;;5081302;28;19968;-59
2023/12/21 13:49:06;;;;;;;;;;;20.30;60.10;;;;;;5077768;28;19932;-59
2023/12/21 13:51:32;;;;;;;;;;;20.30;60.00;;;;;;5081895;28;19924;-63
2023/12/21 13:53:57;;;;;;;;;;;20.30;60.10;;;;;;5082056;28;19925;-62
2023/12/21 13:56:23;;;;;;;;;;;20.30;60.00;;;;;;5076879;28;19925;-63
2023/12/21 13:58:49;;;;;;;;;;;20.30;60.00;;;;;;5075657;28;19925;-61
2023/12/21 14:01:17;;;;;;;;;;;20.30;60.00;;;;;;5078577;28;19925;-60
2023/12/21 14:03:43;;;;;;;;;;;20.30;60.00;;;;;;5078868;28;20307;-62
2023/12/21 14:06:08;;;;;;;;;;;20.30;59.90;;;;;;5111884;28;19928;-63
2023/12/21 14:08:34;;;;;;;;;;;20.40;60.00;;;;;;5085558;28;19978;-63